sensor_id;sensor_type;location;lat;lon;timestamp;P1;durP1;ratioP1;P2;durP2;ratioP2
73779;SDS011;62093;37.614;15.072;2024-02-04T00:02:03;8.93;;;6.30;;
73779;SDS011;62093;37.614;15.072;2024-02-04T00:04:29;8.63;;;5.80;;
73779;SDS011;62093;37.614;15.072;2024-02-04T00:06:57;10.15;;;6.28;;
73779;SDS011;62093;37.614;15.072;2024-02-04T00:09:24;8.50;;;6.07;;
73779;SDS011;62093;37.614;15.072;2024-02-04T00:11:51;9.40;;;5.95;;
73779;SDS011;62093;37.614;15.072;2024-02-04T00:14:17;8.67;;;6.23;;
73779;SDS011;62093;37.614;15.072;2024-02-04T00:16:43;8.35;;;5.88;;
73779;SDS011;62093;37.614;15.072;2024-02-04T00:19:08;9.57;;;6.05;;
73779;SDS011;62093;37.614;15.072;2024-02-04T00:21:34;8.30;;;5.90;;
73779;SDS011;62093;37.614;15.072;2024-02-04T00:24:00;9.15;;;6.35;;
73779;SDS011;62093;37.614;15.072;2024-02-04T00:26:26;8.35;;;5.75;;
73779;SDS011;62093;37.614;15.072;2024-02-04T00:28:52;9.37;;;6.13;;
73779;SDS011;62093;37.614;15.072;2024-02-04T00:31:18;8.38;;;5.78;;
73779;SDS011;62093;37.614;15.072;2024-02-04T00:33:44;8.85;;;5.80;;
73779;SDS011;62093;37.614;15.072;2024-02-04T00:36:11;9.20;;;5.85;;
73779;SDS011;62093;37.614;15.072;2024-02-04T00:38:37;8.38;;;5.70;;
73779;SDS011;62093;37.614;15.072;2024-02-04T00:41:02;8.40;;;5.43;;
73779;SDS011;62093;37.614;15.072;2024-02-04T00:43:29;8.80;;;5.75;;
73779;SDS011;62093;37.614;15.072;2024-02-04T00:45:55;8.18;;;5.57;;
73779;SDS011;62093;37.614;15.072;2024-02-04T00:48:22;9.05;;;6.10;;
73779;SDS011;62093;37.614;15.072;2024-02-04T00:50:48;8.93;;;5.70;;
73779;SDS011;62093;37.614;15.072;2024-02-04T00:53:14;8.57;;;5.68;;
73779;SDS011;62093;37.614;15.072;2024-02-04T00:55:41;7.57;;;5.15;;
73779;SDS011;62093;37.614;15.072;2024-02-04T00:58:06;7.93;;;5.20;;
73779;SDS011;62093;37.614;15.072;2024-02-04T01:00:32;7.90;;;5.93;;
73779;SDS011;62093;37.614;15.072;2024-02-04T01:02:58;8.13;;;5.25;;
73779;SDS011;62093;37.614;15.072;2024-02-04T01:05:24;8.73;;;5.63;;
73779;SDS011;62093;37.614;15.072;2024-02-04T01:07:50;8.03;;;5.07;;
73779;SDS011;62093;37.614;15.072;2024-02-04T01:10:16;7.68;;;4.88;;
73779;SDS011;62093;37.614;15.072;2024-02-04T01:12:42;7.35;;;4.72;;
73779;SDS011;62093;37.614;15.072;2024-02-04T01:15:08;10.43;;;5.60;;
73779;SDS011;62093;37.614;15.072;2024-02-04T01:17:34;8.32;;;5.55;;
73779;SDS011;62093;37.614;15.072;2024-02-04T01:20:00;7.70;;;5.10;;
73779;SDS011;62093;37.614;15.072;2024-02-04T01:22:26;8.10;;;5.50;;
73779;SDS011;62093;37.614;15.072;2024-02-04T01:24:52;8.63;;;5.65;;
73779;SDS011;62093;37.614;15.072;2024-02-04T01:27:19;8.27;;;5.13;;
73779;SDS011;62093;37.614;15.072;2024-02-04T01:29:45;9.18;;;5.53;;
73779;SDS011;62093;37.614;15.072;2024-02-04T01:32:10;8.77;;;5.33;;
73779;SDS011;62093;37.614;15.072;2024-02-04T01:34:36;7.47;;;5.28;;
73779;SDS011;62093;37.614;15.072;2024-02-04T01:37:02;8.20;;;5.25;;
73779;SDS011;62093;37.614;15.072;2024-02-04T01:39:29;8.82;;;5.45;;
73779;SDS011;62093;37.614;15.072;2024-02-04T01:41:55;8.23;;;5.17;;
73779;SDS011;62093;37.614;15.072;2024-02-04T01:44:20;7.97;;;5.00;;
73779;SDS011;62093;37.614;15.072;2024-02-04T01:46:48;7.88;;;5.20;;
73779;SDS011;62093;37.614;15.072;2024-02-04T01:49:14;8.32;;;4.95;;
73779;SDS011;62093;37.614;15.072;2024-02-04T01:51:40;7.00;;;5.10;;
73779;SDS011;62093;37.614;15.072;2024-02-04T01:54:08;9.07;;;5.15;;
73779;SDS011;62093;37.614;15.072;2024-02-04T01:56:34;7.95;;;4.90;;
73779;SDS011;62093;37.614;15.072;2024-02-04T01:59:02;7.75;;;4.80;;
73779;SDS011;62093;37.614;15.072;2024-02-04T02:01:28;6.87;;;4.60;;
73779;SDS011;62093;37.614;15.072;2024-02-04T02:03:54;7.22;;;4.60;;
73779;SDS011;62093;37.614;15.072;2024-02-04T02:06:20;8.07;;;5.00;;
73779;SDS011;62093;37.614;15.072;2024-02-04T02:08:47;8.05;;;4.63;;
73779;SDS011;62093;37.614;15.072;2024-02-04T02:11:21;7.22;;;4.75;;
73779;SDS011;62093;37.614;15.072;2024-02-04T02:13:57;7.90;;;5.00;;
73779;SDS011;62093;37.614;15.072;2024-02-04T02:16:27;7.35;;;4.75;;
73779;SDS011;62093;37.614;15.072;2024-02-04T02:19:12;7.38;;;4.60;;
73779;SDS011;62093;37.614;15.072;2024-02-04T02:22:15;7.47;;;4.85;;
73779;SDS011;62093;37.614;15.072;2024-02-04T02:24:52;7.90;;;4.50;;
73779;SDS011;62093;37.614;15.072;2024-02-04T02:27:19;7.17;;;4.50;;
73779;SDS011;62093;37.614;15.072;2024-02-04T02:29:45;7.72;;;4.53;;
73779;SDS011;62093;37.614;15.072;2024-02-04T02:32:11;7.20;;;4.80;;
73779;SDS011;62093;37.614;15.072;2024-02-04T02:34:37;7.30;;;4.43;;
73779;SDS011;62093;37.614;15.072;2024-02-04T02:40:03;7.32;;;4.53;;
73779;SDS011;62093;37.614;15.072;2024-02-04T02:42:38;8.00;;;4.35;;
73779;SDS011;62093;37.614;15.072;2024-02-04T02:45:06;6.78;;;4.30;;
73779;SDS011;62093;37.614;15.072;2024-02-04T02:47:33;6.80;;;4.70;;
73779;SDS011;62093;37.614;15.072;2024-02-04T02:50:00;6.93;;;4.40;;
73779;SDS011;62093;37.614;15.072;2024-02-04T02:52:27;7.15;;;4.30;;
73779;SDS011;62093;37.614;15.072;2024-02-04T02:54:52;7.63;;;4.97;;
73779;SDS011;62093;37.614;15.072;2024-02-04T02:57:18;6.82;;;4.43;;
73779;SDS011;62093;37.614;15.072;2024-02-04T02:59:44;6.13;;;3.87;;
73779;SDS011;62093;37.614;15.072;2024-02-04T03:02:10;7.38;;;4.10;;
73779;SDS011;62093;37.614;15.072;2024-02-04T03:04:36;7.30;;;4.68;;
73779;SDS011;62093;37.614;15.072;2024-02-04T03:07:03;7.07;;;4.63;;
73779;SDS011;62093;37.614;15.072;2024-02-04T03:09:29;6.70;;;4.30;;
73779;SDS011;62093;37.614;15.072;2024-02-04T03:11:55;7.03;;;4.38;;
73779;SDS011;62093;37.614;15.072;2024-02-04T03:14:22;6.68;;;4.47;;
73779;SDS011;62093;37.614;15.072;2024-02-04T03:16:48;7.00;;;4.57;;
73779;SDS011;62093;37.614;15.072;2024-02-04T03:19:14;6.30;;;3.90;;
73779;SDS011;62093;37.614;15.072;2024-02-04T03:21:41;6.28;;;3.88;;
73779;SDS011;62093;37.614;15.072;2024-02-04T03:24:07;7.03;;;4.63;;
73779;SDS011;62093;37.614;15.072;2024-02-04T03:26:33;7.25;;;4.35;;
73779;SDS011;62093;37.614;15.072;2024-02-04T03:28:59;7.00;;;4.03;;
73779;SDS011;62093;37.614;15.072;2024-02-04T03:31:25;7.23;;;4.50;;
73779;SDS011;62093;37.614;15.072;2024-02-04T03:33:52;6.90;;;4.20;;
73779;SDS011;62093;37.614;15.072;2024-02-04T03:36:24;7.28;;;4.07;;
73779;SDS011;62093;37.614;15.072;2024-02-04T03:38:50;6.82;;;4.47;;
73779;SDS011;62093;37.614;15.072;2024-02-04T03:41:17;6.73;;;3.63;;
73779;SDS011;62093;37.614;15.072;2024-02-04T03:43:43;6.70;;;4.25;;
73779;SDS011;62093;37.614;15.072;2024-02-04T03:46:16;6.03;;;3.80;;
73779;SDS011;62093;37.614;15.072;2024-02-04T03:48:42;7.22;;;4.80;;
73779;SDS011;62093;37.614;15.072;2024-02-04T03:51:08;7.80;;;4.95;;
73779;SDS011;62093;37.614;15.072;2024-02-04T03:53:41;6.90;;;4.67;;
73779;SDS011;62093;37.614;15.072;2024-02-04T03:56:07;7.55;;;4.25;;
73779;SDS011;62093;37.614;15.072;2024-02-04T03:58:33;7.88;;;5.13;;
73779;SDS011;62093;37.614;15.072;2024-02-04T04:00:59;7.03;;;4.50;;
73779;SDS011;62093;37.614;15.072;2024-02-04T04:03:25;7.13;;;4.63;;
73779;SDS011;62093;37.614;15.072;2024-02-04T04:05:52;7.53;;;4.60;;
73779;SDS011;62093;37.614;15.072;2024-02-04T04:08:18;7.05;;;4.43;;
73779;SDS011;62093;37.614;15.072;2024-02-04T04:10:45;6.17;;;3.83;;
73779;SDS011;62093;37.614;15.072;2024-02-04T04:13:11;6.97;;;4.50;;
73779;SDS011;62093;37.614;15.072;2024-02-04T04:15:38;6.25;;;4.28;;
73779;SDS011;62093;37.614;15.072;2024-02-04T04:18:04;6.80;;;4.22;;
73779;SDS011;62093;37.614;15.072;2024-02-04T04:20:30;6.43;;;4.40;;
73779;SDS011;62093;37.614;15.072;2024-02-04T04:22:56;5.97;;;3.63;;
73779;SDS011;62093;37.614;15.072;2024-02-04T04:25:22;6.78;;;4.32;;
73779;SDS011;62093;37.614;15.072;2024-02-04T04:27:48;6.38;;;3.90;;
73779;SDS011;62093;37.614;15.072;2024-02-04T04:30:14;7.57;;;4.07;;
73779;SDS011;62093;37.614;15.072;2024-02-04T04:32:40;6.68;;;4.05;;
73779;SDS011;62093;37.614;15.072;2024-02-04T04:35:06;6.68;;;4.10;;
73779;SDS011;62093;37.614;15.072;2024-02-04T04:37:32;6.68;;;3.95;;
73779;SDS011;62093;37.614;15.072;2024-02-04T04:39:58;6.35;;;3.97;;
73779;SDS011;62093;37.614;15.072;2024-02-04T04:42:24;6.70;;;4.40;;
73779;SDS011;62093;37.614;15.072;2024-02-04T04:44:50;5.82;;;3.47;;
73779;SDS011;62093;37.614;15.072;2024-02-04T04:47:16;7.07;;;4.22;;
73779;SDS011;62093;37.614;15.072;2024-02-04T04:49:41;6.80;;;4.00;;
73779;SDS011;62093;37.614;15.072;2024-02-04T04:52:07;6.60;;;3.88;;
73779;SDS011;62093;37.614;15.072;2024-02-04T04:54:33;6.93;;;4.35;;
73779;SDS011;62093;37.614;15.072;2024-02-04T04:56:59;5.77;;;3.80;;
73779;SDS011;62093;37.614;15.072;2024-02-04T04:59:25;7.05;;;4.40;;
73779;SDS011;62093;37.614;15.072;2024-02-04T05:01:51;6.43;;;4.03;;
73779;SDS011;62093;37.614;15.072;2024-02-04T05:04:17;6.07;;;3.37;;
73779;SDS011;62093;37.614;15.072;2024-02-04T05:06:46;6.15;;;3.90;;
73779;SDS011;62093;37.614;15.072;2024-02-04T05:09:12;6.30;;;3.92;;
73779;SDS011;62093;37.614;15.072;2024-02-04T05:11:38;7.03;;;3.80;;
73779;SDS011;62093;37.614;15.072;2024-02-04T05:14:04;6.57;;;4.10;;
73779;SDS011;62093;37.614;15.072;2024-02-04T05:16:30;6.45;;;3.70;;
73779;SDS011;62093;37.614;15.072;2024-02-04T05:18:56;6.53;;;3.93;;
73779;SDS011;62093;37.614;15.072;2024-02-04T05:21:22;6.32;;;3.70;;
73779;SDS011;62093;37.614;15.072;2024-02-04T05:23:48;6.38;;;3.92;;
73779;SDS011;62093;37.614;15.072;2024-02-04T05:26:14;6.00;;;3.75;;
73779;SDS011;62093;37.614;15.072;2024-02-04T05:28:43;5.80;;;3.67;;
73779;SDS011;62093;37.614;15.072;2024-02-04T05:31:09;6.65;;;3.95;;
73779;SDS011;62093;37.614;15.072;2024-02-04T05:33:34;6.38;;;3.85;;
73779;SDS011;62093;37.614;15.072;2024-02-04T05:36:00;6.93;;;4.13;;
73779;SDS011;62093;37.614;15.072;2024-02-04T05:38:26;6.30;;;3.85;;
73779;SDS011;62093;37.614;15.072;2024-02-04T05:40:52;6.22;;;3.90;;
73779;SDS011;62093;37.614;15.072;2024-02-04T05:43:18;6.72;;;4.00;;
73779;SDS011;62093;37.614;15.072;2024-02-04T05:45:44;6.87;;;3.93;;
73779;SDS011;62093;37.614;15.072;2024-02-04T05:48:10;6.53;;;3.92;;
73779;SDS011;62093;37.614;15.072;2024-02-04T05:50:36;6.22;;;3.72;;
73779;SDS011;62093;37.614;15.072;2024-02-04T05:53:02;7.10;;;4.20;;
73779;SDS011;62093;37.614;15.072;2024-02-04T05:55:29;6.90;;;4.07;;
73779;SDS011;62093;37.614;15.072;2024-02-04T05:57:55;6.40;;;4.18;;
73779;SDS011;62093;37.614;15.072;2024-02-04T06:00:21;6.15;;;3.75;;
73779;SDS011;62093;37.614;15.072;2024-02-04T06:02:46;7.00;;;3.92;;
73779;SDS011;62093;37.614;15.072;2024-02-04T06:05:13;6.97;;;4.10;;
73779;SDS011;62093;37.614;15.072;2024-02-04T06:07:39;6.40;;;3.80;;
73779;SDS011;62093;37.614;15.072;2024-02-04T06:10:10;5.47;;;3.38;;
73779;SDS011;62093;37.614;15.072;2024-02-04T06:12:37;6.60;;;3.65;;
73779;SDS011;62093;37.614;15.072;2024-02-04T06:15:11;5.40;;;3.37;;
73779;SDS011;62093;37.614;15.072;2024-02-04T06:17:38;6.03;;;3.60;;
73779;SDS011;62093;37.614;15.072;2024-02-04T06:20:04;6.75;;;3.85;;
73779;SDS011;62093;37.614;15.072;2024-02-04T06:22:31;6.43;;;3.70;;
73779;SDS011;62093;37.614;15.072;2024-02-04T06:24:56;6.10;;;3.73;;
73779;SDS011;62093;37.614;15.072;2024-02-04T06:27:23;6.38;;;3.50;;
73779;SDS011;62093;37.614;15.072;2024-02-04T06:29:48;6.20;;;3.53;;
73779;SDS011;62093;37.614;15.072;2024-02-04T06:32:14;6.37;;;3.77;;
73779;SDS011;62093;37.614;15.072;2024-02-04T06:34:41;6.18;;;3.50;;
73779;SDS011;62093;37.614;15.072;2024-02-04T06:37:07;5.85;;;3.17;;
73779;SDS011;62093;37.614;15.072;2024-02-04T06:39:33;5.70;;;3.30;;
73779;SDS011;62093;37.614;15.072;2024-02-04T06:41:59;5.77;;;3.40;;
73779;SDS011;62093;37.614;15.072;2024-02-04T06:44:25;5.78;;;3.58;;
73779;SDS011;62093;37.614;15.072;2024-02-04T06:46:51;6.43;;;3.38;;
73779;SDS011;62093;37.614;15.072;2024-02-04T06:49:16;6.27;;;3.70;;
73779;SDS011;62093;37.614;15.072;2024-02-04T06:51:43;5.70;;;3.45;;
73779;SDS011;62093;37.614;15.072;2024-02-04T06:54:10;6.00;;;3.42;;
73779;SDS011;62093;37.614;15.072;2024-02-04T06:56:36;6.60;;;3.23;;
73779;SDS011;62093;37.614;15.072;2024-02-04T06:59:02;6.03;;;3.40;;
73779;SDS011;62093;37.614;15.072;2024-02-04T07:01:28;6.43;;;3.85;;
73779;SDS011;62093;37.614;15.072;2024-02-04T07:03:54;5.97;;;3.60;;
73779;SDS011;62093;37.614;15.072;2024-02-04T07:06:20;6.23;;;3.23;;
73779;SDS011;62093;37.614;15.072;2024-02-04T07:08:46;6.15;;;3.50;;
73779;SDS011;62093;37.614;15.072;2024-02-04T07:11:12;5.40;;;3.03;;
73779;SDS011;62093;37.614;15.072;2024-02-04T07:13:37;5.87;;;3.73;;
73779;SDS011;62093;37.614;15.072;2024-02-04T07:16:03;6.43;;;3.65;;
73779;SDS011;62093;37.614;15.072;2024-02-04T07:18:29;5.93;;;3.47;;
73779;SDS011;62093;37.614;15.072;2024-02-04T07:20:56;6.07;;;3.70;;
73779;SDS011;62093;37.614;15.072;2024-02-04T07:23:22;5.90;;;3.80;;
73779;SDS011;62093;37.614;15.072;2024-02-04T07:25:48;6.72;;;3.88;;
73779;SDS011;62093;37.614;15.072;2024-02-04T07:28:14;6.05;;;3.35;;
73779;SDS011;62093;37.614;15.072;2024-02-04T07:30:40;6.40;;;3.27;;
73779;SDS011;62093;37.614;15.072;2024-02-04T07:33:06;5.97;;;3.58;;
73779;SDS011;62093;37.614;15.072;2024-02-04T07:35:31;5.85;;;3.63;;
73779;SDS011;62093;37.614;15.072;2024-02-04T07:37:58;5.68;;;3.38;;
73779;SDS011;62093;37.614;15.072;2024-02-04T07:40:23;5.97;;;3.23;;
73779;SDS011;62093;37.614;15.072;2024-02-04T07:42:49;5.82;;;3.25;;
73779;SDS011;62093;37.614;15.072;2024-02-04T07:45:15;6.25;;;3.63;;
73779;SDS011;62093;37.614;15.072;2024-02-04T07:47:41;5.80;;;3.30;;
73779;SDS011;62093;37.614;15.072;2024-02-04T07:50:07;5.97;;;3.10;;
73779;SDS011;62093;37.614;15.072;2024-02-04T07:52:34;5.90;;;3.42;;
73779;SDS011;62093;37.614;15.072;2024-02-04T07:54:59;5.27;;;3.10;;
73779;SDS011;62093;37.614;15.072;2024-02-04T07:57:26;5.50;;;3.27;;
73779;SDS011;62093;37.614;15.072;2024-02-04T07:59:51;6.35;;;3.50;;
73779;SDS011;62093;37.614;15.072;2024-02-04T08:02:17;5.75;;;3.20;;
73779;SDS011;62093;37.614;15.072;2024-02-04T08:04:43;6.88;;;3.58;;
73779;SDS011;62093;37.614;15.072;2024-02-04T08:07:09;5.90;;;3.40;;
73779;SDS011;62093;37.614;15.072;2024-02-04T08:09:35;5.90;;;3.40;;
73779;SDS011;62093;37.614;15.072;2024-02-04T08:12:01;6.15;;;3.30;;
73779;SDS011;62093;37.614;15.072;2024-02-04T08:14:27;5.67;;;3.40;;
73779;SDS011;62093;37.614;15.072;2024-02-04T08:16:53;5.93;;;3.47;;
73779;SDS011;62093;37.614;15.072;2024-02-04T08:19:18;5.50;;;3.13;;
73779;SDS011;62093;37.614;15.072;2024-02-04T08:21:44;5.53;;;3.10;;
73779;SDS011;62093;37.614;15.072;2024-02-04T08:24:10;5.90;;;3.40;;
73779;SDS011;62093;37.614;15.072;2024-02-04T08:26:36;5.40;;;3.10;;
73779;SDS011;62093;37.614;15.072;2024-02-04T08:29:02;5.75;;;3.10;;
73779;SDS011;62093;37.614;15.072;2024-02-04T08:31:29;5.68;;;3.15;;
73779;SDS011;62093;37.614;15.072;2024-02-04T08:33:58;6.20;;;3.30;;
73779;SDS011;62093;37.614;15.072;2024-02-04T08:36:23;5.43;;;3.30;;
73779;SDS011;62093;37.614;15.072;2024-02-04T08:38:49;6.22;;;3.25;;
73779;SDS011;62093;37.614;15.072;2024-02-04T08:41:15;5.87;;;3.03;;
73779;SDS011;62093;37.614;15.072;2024-02-04T08:43:41;5.20;;;2.85;;
73779;SDS011;62093;37.614;15.072;2024-02-04T08:46:07;5.55;;;3.42;;
73779;SDS011;62093;37.614;15.072;2024-02-04T08:48:33;5.47;;;3.30;;
73779;SDS011;62093;37.614;15.072;2024-02-04T08:50:59;5.47;;;3.20;;
73779;SDS011;62093;37.614;15.072;2024-02-04T08:53:25;5.47;;;3.28;;
73779;SDS011;62093;37.614;15.072;2024-02-04T08:55:51;5.25;;;3.00;;
73779;SDS011;62093;37.614;15.072;2024-02-04T08:58:17;5.03;;;2.93;;
73779;SDS011;62093;37.614;15.072;2024-02-04T09:00:43;5.35;;;3.25;;
73779;SDS011;62093;37.614;15.072;2024-02-04T09:03:09;5.50;;;3.10;;
73779;SDS011;62093;37.614;15.072;2024-02-04T09:05:34;5.07;;;2.87;;
73779;SDS011;62093;37.614;15.072;2024-02-04T09:08:00;5.67;;;3.27;;
73779;SDS011;62093;37.614;15.072;2024-02-04T09:10:27;5.20;;;3.00;;
73779;SDS011;62093;37.614;15.072;2024-02-04T09:12:53;5.15;;;3.08;;
73779;SDS011;62093;37.614;15.072;2024-02-04T09:15:19;5.65;;;3.22;;
73779;SDS011;62093;37.614;15.072;2024-02-04T09:17:45;5.30;;;2.90;;
73779;SDS011;62093;37.614;15.072;2024-02-04T09:20:11;5.18;;;2.92;;
73779;SDS011;62093;37.614;15.072;2024-02-04T09:22:37;5.05;;;2.90;;
73779;SDS011;62093;37.614;15.072;2024-02-04T09:25:05;5.47;;;2.90;;
73779;SDS011;62093;37.614;15.072;2024-02-04T09:27:31;4.97;;;3.03;;
73779;SDS011;62093;37.614;15.072;2024-02-04T09:29:57;4.97;;;2.85;;
73779;SDS011;62093;37.614;15.072;2024-02-04T09:32:24;5.35;;;2.85;;
73779;SDS011;62093;37.614;15.072;2024-02-04T09:34:50;5.28;;;3.10;;
73779;SDS011;62093;37.614;15.072;2024-02-04T09:37:15;5.73;;;2.90;;
73779;SDS011;62093;37.614;15.072;2024-02-04T09:39:41;5.38;;;3.10;;
73779;SDS011;62093;37.614;15.072;2024-02-04T09:42:07;6.15;;;3.10;;
73779;SDS011;62093;37.614;15.072;2024-02-04T09:44:33;5.73;;;3.20;;
73779;SDS011;62093;37.614;15.072;2024-02-04T09:47:01;4.97;;;2.63;;
73779;SDS011;62093;37.614;15.072;2024-02-04T09:49:27;4.70;;;2.60;;
73779;SDS011;62093;37.614;15.072;2024-02-04T09:51:56;6.18;;;3.20;;
73779;SDS011;62093;37.614;15.072;2024-02-04T09:54:25;4.60;;;2.50;;
73779;SDS011;62093;37.614;15.072;2024-02-04T09:56:53;5.82;;;3.08;;
73779;SDS011;62093;37.614;15.072;2024-02-04T09:59:19;5.50;;;2.80;;
73779;SDS011;62093;37.614;15.072;2024-02-04T10:01:45;5.20;;;2.70;;
73779;SDS011;62093;37.614;15.072;2024-02-04T10:04:12;5.40;;;2.90;;
73779;SDS011;62093;37.614;15.072;2024-02-04T10:06:38;5.77;;;3.30;;
73779;SDS011;62093;37.614;15.072;2024-02-04T10:09:04;5.95;;;2.63;;
73779;SDS011;62093;37.614;15.072;2024-02-04T10:11:30;5.10;;;2.88;;
73779;SDS011;62093;37.614;15.072;2024-02-04T10:13:56;4.82;;;2.75;;
73779;SDS011;62093;37.614;15.072;2024-02-04T10:16:21;5.20;;;3.00;;
73779;SDS011;62093;37.614;15.072;2024-02-04T10:18:47;5.03;;;2.40;;
73779;SDS011;62093;37.614;15.072;2024-02-04T10:21:19;5.25;;;2.72;;
73779;SDS011;62093;37.614;15.072;2024-02-04T10:23:46;5.18;;;2.55;;
73779;SDS011;62093;37.614;15.072;2024-02-04T10:26:13;4.97;;;2.60;;
73779;SDS011;62093;37.614;15.072;2024-02-04T10:28:39;4.53;;;2.35;;
73779;SDS011;62093;37.614;15.072;2024-02-04T10:31:08;5.00;;;2.72;;
73779;SDS011;62093;37.614;15.072;2024-02-04T10:33:37;5.35;;;3.00;;
73779;SDS011;62093;37.614;15.072;2024-02-04T10:36:04;5.43;;;2.70;;
73779;SDS011;62093;37.614;15.072;2024-02-04T10:38:31;5.23;;;2.77;;
73779;SDS011;62093;37.614;15.072;2024-02-04T10:40:58;4.63;;;2.72;;
73779;SDS011;62093;37.614;15.072;2024-02-04T10:43:33;5.07;;;2.80;;
73779;SDS011;62093;37.614;15.072;2024-02-04T10:46:09;5.40;;;2.80;;
73779;SDS011;62093;37.614;15.072;2024-02-04T10:48:40;5.00;;;2.53;;
73779;SDS011;62093;37.614;15.072;2024-02-04T10:51:13;4.90;;;2.70;;
73779;SDS011;62093;37.614;15.072;2024-02-04T10:53:41;5.00;;;2.72;;
73779;SDS011;62093;37.614;15.072;2024-02-04T10:56:08;4.78;;;2.38;;
73779;SDS011;62093;37.614;15.072;2024-02-04T10:58:43;4.70;;;2.50;;
73779;SDS011;62093;37.614;15.072;2024-02-04T11:01:11;5.03;;;2.53;;
73779;SDS011;62093;37.614;15.072;2024-02-04T11:03:40;4.87;;;2.80;;
73779;SDS011;62093;37.614;15.072;2024-02-04T11:06:09;5.00;;;3.00;;
73779;SDS011;62093;37.614;15.072;2024-02-04T11:08:35;4.80;;;2.70;;
73779;SDS011;62093;37.614;15.072;2024-02-04T11:11:04;4.97;;;2.90;;
73779;SDS011;62093;37.614;15.072;2024-02-04T11:13:30;5.40;;;2.70;;
73779;SDS011;62093;37.614;15.072;2024-02-04T11:15:57;6.03;;;2.87;;
73779;SDS011;62093;37.614;15.072;2024-02-04T11:26:29;4.70;;;2.63;;
73779;SDS011;62093;37.614;15.072;2024-02-04T11:28:56;5.13;;;2.80;;
73779;SDS011;62093;37.614;15.072;2024-02-04T11:31:22;5.07;;;2.90;;
73779;SDS011;62093;37.614;15.072;2024-02-04T11:33:50;5.10;;;2.50;;
73779;SDS011;62093;37.614;15.072;2024-02-04T11:36:16;4.65;;;2.70;;
73779;SDS011;62093;37.614;15.072;2024-02-04T11:38:47;4.77;;;2.50;;
73779;SDS011;62093;37.614;15.072;2024-02-04T11:41:21;5.05;;;2.58;;
73779;SDS011;62093;37.614;15.072;2024-02-04T11:43:53;4.72;;;2.60;;
73779;SDS011;62093;37.614;15.072;2024-02-04T11:46:21;5.10;;;2.42;;
73779;SDS011;62093;37.614;15.072;2024-02-04T11:48:51;5.18;;;2.85;;
73779;SDS011;62093;37.614;15.072;2024-02-04T11:51:24;4.70;;;2.43;;
73779;SDS011;62093;37.614;15.072;2024-02-04T11:53:50;5.63;;;3.10;;
73779;SDS011;62093;37.614;15.072;2024-02-04T11:56:18;5.43;;;2.88;;
73779;SDS011;62093;37.614;15.072;2024-02-04T11:58:44;4.65;;;2.40;;
73779;SDS011;62093;37.614;15.072;2024-02-04T12:01:10;5.55;;;2.88;;
73779;SDS011;62093;37.614;15.072;2024-02-04T12:03:36;4.80;;;2.43;;
73779;SDS011;62093;37.614;15.072;2024-02-04T12:06:03;5.10;;;2.78;;
73779;SDS011;62093;37.614;15.072;2024-02-04T12:08:30;5.13;;;2.85;;
73779;SDS011;62093;37.614;15.072;2024-02-04T12:10:58;5.30;;;2.70;;
73779;SDS011;62093;37.614;15.072;2024-02-04T12:13:25;5.23;;;2.80;;
73779;SDS011;62093;37.614;15.072;2024-02-04T12:15:53;5.50;;;2.90;;
73779;SDS011;62093;37.614;15.072;2024-02-04T12:18:19;5.20;;;2.80;;
73779;SDS011;62093;37.614;15.072;2024-02-04T12:20:46;4.65;;;2.33;;
73779;SDS011;62093;37.614;15.072;2024-02-04T12:23:14;5.05;;;2.75;;
73779;SDS011;62093;37.614;15.072;2024-02-04T12:25:41;5.40;;;2.60;;
73779;SDS011;62093;37.614;15.072;2024-02-04T12:28:07;4.78;;;2.33;;
73779;SDS011;62093;37.614;15.072;2024-02-04T12:30:34;5.93;;;2.28;;
73779;SDS011;62093;37.614;15.072;2024-02-04T12:33:00;5.15;;;2.70;;
73779;SDS011;62093;37.614;15.072;2024-02-04T12:35:31;5.00;;;2.83;;
73779;SDS011;62093;37.614;15.072;2024-02-04T12:38:00;5.03;;;2.53;;
73779;SDS011;62093;37.614;15.072;2024-02-04T12:40:28;5.05;;;2.47;;
73779;SDS011;62093;37.614;15.072;2024-02-04T12:42:58;5.10;;;2.85;;
73779;SDS011;62093;37.614;15.072;2024-02-04T12:45:27;4.70;;;2.65;;
73779;SDS011;62093;37.614;15.072;2024-02-04T12:47:54;5.10;;;2.70;;
73779;SDS011;62093;37.614;15.072;2024-02-04T12:50:21;5.70;;;2.87;;
73779;SDS011;62093;37.614;15.072;2024-02-04T12:52:48;5.15;;;2.63;;
73779;SDS011;62093;37.614;15.072;2024-02-04T12:55:25;4.85;;;2.65;;
73779;SDS011;62093;37.614;15.072;2024-02-04T13:00:37;5.88;;;2.42;;
73779;SDS011;62093;37.614;15.072;2024-02-04T13:03:04;5.03;;;2.50;;
73779;SDS011;62093;37.614;15.072;2024-02-04T13:05:31;4.97;;;2.53;;
73779;SDS011;62093;37.614;15.072;2024-02-04T13:07:58;5.07;;;2.60;;
73779;SDS011;62093;37.614;15.072;2024-02-04T13:10:28;5.20;;;2.60;;
73779;SDS011;62093;37.614;15.072;2024-02-04T13:15:37;4.80;;;2.40;;
73779;SDS011;62093;37.614;15.072;2024-02-04T13:18:05;5.20;;;2.60;;
73779;SDS011;62093;37.614;15.072;2024-02-04T13:20:31;5.10;;;2.58;;
73779;SDS011;62093;37.614;15.072;2024-02-04T13:22:57;5.13;;;2.70;;
73779;SDS011;62093;37.614;15.072;2024-02-04T13:25:25;4.82;;;2.55;;
73779;SDS011;62093;37.614;15.072;2024-02-04T13:27:51;4.90;;;2.60;;
73779;SDS011;62093;37.614;15.072;2024-02-04T13:30:18;5.10;;;2.80;;
73779;SDS011;62093;37.614;15.072;2024-02-04T13:32:45;5.15;;;2.55;;
73779;SDS011;62093;37.614;15.072;2024-02-04T13:35:11;5.20;;;2.30;;
73779;SDS011;62093;37.614;15.072;2024-02-04T13:37:41;5.18;;;2.70;;
73779;SDS011;62093;37.614;15.072;2024-02-04T13:40:15;5.00;;;2.50;;
73779;SDS011;62093;37.614;15.072;2024-02-04T13:42:41;4.50;;;2.55;;
73779;SDS011;62093;37.614;15.072;2024-02-04T13:45:07;4.82;;;2.40;;
73779;SDS011;62093;37.614;15.072;2024-02-04T13:47:34;5.00;;;2.55;;
73779;SDS011;62093;37.614;15.072;2024-02-04T13:50:00;5.27;;;2.60;;
73779;SDS011;62093;37.614;15.072;2024-02-04T13:52:27;4.68;;;2.20;;
73779;SDS011;62093;37.614;15.072;2024-02-04T13:54:52;4.70;;;2.60;;
73779;SDS011;62093;37.614;15.072;2024-02-04T13:57:18;4.45;;;2.05;;
73779;SDS011;62093;37.614;15.072;2024-02-04T13:59:44;4.60;;;2.17;;
73779;SDS011;62093;37.614;15.072;2024-02-04T14:02:10;5.57;;;2.30;;
73779;SDS011;62093;37.614;15.072;2024-02-04T14:04:36;5.13;;;2.55;;
73779;SDS011;62093;37.614;15.072;2024-02-04T14:07:02;5.10;;;2.38;;
73779;SDS011;62093;37.614;15.072;2024-02-04T14:09:28;5.00;;;2.40;;
73779;SDS011;62093;37.614;15.072;2024-02-04T14:11:54;4.55;;;2.15;;
73779;SDS011;62093;37.614;15.072;2024-02-04T14:14:22;5.45;;;2.20;;
73779;SDS011;62093;37.614;15.072;2024-02-04T14:16:49;5.00;;;2.53;;
73779;SDS011;62093;37.614;15.072;2024-02-04T14:19:15;6.35;;;2.50;;
73779;SDS011;62093;37.614;15.072;2024-02-04T14:21:41;5.43;;;2.80;;
73779;SDS011;62093;37.614;15.072;2024-02-04T14:24:07;5.47;;;2.50;;
73779;SDS011;62093;37.614;15.072;2024-02-04T14:26:33;4.95;;;2.47;;
73779;SDS011;62093;37.614;15.072;2024-02-04T14:28:59;5.82;;;2.70;;
73779;SDS011;62093;37.614;15.072;2024-02-04T14:31:25;4.80;;;2.30;;
73779;SDS011;62093;37.614;15.072;2024-02-04T14:33:51;4.40;;;2.20;;
73779;SDS011;62093;37.614;15.072;2024-02-04T14:36:17;4.60;;;2.20;;
73779;SDS011;62093;37.614;15.072;2024-02-04T14:38:43;4.80;;;2.33;;
73779;SDS011;62093;37.614;15.072;2024-02-04T14:41:08;4.80;;;2.28;;
73779;SDS011;62093;37.614;15.072;2024-02-04T14:43:37;5.38;;;2.60;;
73779;SDS011;62093;37.614;15.072;2024-02-04T14:46:04;5.30;;;2.50;;
73779;SDS011;62093;37.614;15.072;2024-02-04T14:48:30;4.90;;;2.50;;